sensor_id;sensor_type;location;lat;lon;timestamp;temperature;humidity
40085;DHT22;25786;51.504;7.344;2022-08-21T03:12:49;16.90;82.40
40085;DHT22;25786;51.504;7.344;2022-08-21T03:15:18;16.80;82.70
40085;DHT22;25786;51.504;7.344;2022-08-21T03:17:44;16.80;82.70
40085;DHT22;25786;51.504;7.344;2022-08-21T03:20:10;16.90;82.50
40085;DHT22;25786;51.504;7.344;2022-08-21T03:22:36;16.90;82.10
40085;DHT22;25786;51.504;7.344;2022-08-21T03:25:02;16.90;81.80
40085;DHT22;25786;51.504;7.344;2022-08-21T03:27:27;16.80;81.80
40085;DHT22;25786;51.504;7.344;2022-08-21T03:29:53;16.80;82.00
40085;DHT22;25786;51.504;7.344;2022-08-21T03:32:19;16.80;81.90
40085;DHT22;25786;51.504;7.344;2022-08-21T03:34:45;16.70;81.70
40085;DHT22;25786;51.504;7.344;2022-08-21T03:37:11;16.60;82.10
40085;DHT22;25786;51.504;7.344;2022-08-21T03:39:36;16.70;82.20
40085;DHT22;25786;51.504;7.344;2022-08-21T03:42:02;16.60;82.20
40085;DHT22;25786;51.504;7.344;2022-08-21T03:44:27;16.60;82.50
40085;DHT22;25786;51.504;7.344;2022-08-21T03:46:54;16.60;82.50
40085;DHT22;25786;51.504;7.344;2022-08-21T03:49:19;16.50;82.40
40085;DHT22;25786;51.504;7.344;2022-08-21T03:51:45;16.50;82.80
40085;DHT22;25786;51.504;7.344;2022-08-21T03:54:10;16.50;83.10
40085;DHT22;25786;51.504;7.344;2022-08-21T03:56:35;16.50;82.80
40085;DHT22;25786;51.504;7.344;2022-08-21T03:59:01;16.50;83.00
40085;DHT22;25786;51.504;7.344;2022-08-21T04:01:31;16.50;82.70
40085;DHT22;25786;51.504;7.344;2022-08-21T04:03:56;16.40;82.50
40085;DHT22;25786;51.504;7.344;2022-08-21T04:06:22;16.50;82.50
40085;DHT22;25786;51.504;7.344;2022-08-21T04:08:47;16.40;82.80
40085;DHT22;25786;51.504;7.344;2022-08-21T04:11:13;16.30;82.70
40085;DHT22;25786;51.504;7.344;2022-08-21T04:13:40;16.30;82.80
40085;DHT22;25786;51.504;7.344;2022-08-21T04:16:06;16.30;83.20
40085;DHT22;25786;51.504;7.344;2022-08-21T04:18:31;16.30;83.30
40085;DHT22;25786;51.504;7.344;2022-08-21T04:20:57;16.30;83.20
40085;DHT22;25786;51.504;7.344;2022-08-21T04:23:23;16.30;83.10
40085;DHT22;25786;51.504;7.344;2022-08-21T04:25:48;16.30;83.10
40085;DHT22;25786;51.504;7.344;2022-08-21T04:28:13;16.30;83.10
40085;DHT22;25786;51.504;7.344;2022-08-21T04:30:39;16.20;83.40
40085;DHT22;25786;51.504;7.344;2022-08-21T04:33:04;16.20;83.50
40085;DHT22;25786;51.504;7.344;2022-08-21T04:35:30;16.20;83.30
40085;DHT22;25786;51.504;7.344;2022-08-21T04:37:56;16.30;83.00
40085;DHT22;25786;51.504;7.344;2022-08-21T04:40:22;16.30;82.80
40085;DHT22;25786;51.504;7.344;2022-08-21T04:42:50;16.20;82.80
40085;DHT22;25786;51.504;7.344;2022-08-21T04:45:26;16.30;82.70
40085;DHT22;25786;51.504;7.344;2022-08-21T04:47:52;16.20;83.30
40085;DHT22;25786;51.504;7.344;2022-08-21T04:50:19;16.30;83.20
40085;DHT22;25786;51.504;7.344;2022-08-21T04:52:44;16.20;83.50
40085;DHT22;25786;51.504;7.344;2022-08-21T04:55:10;16.30;83.30
40085;DHT22;25786;51.504;7.344;2022-08-21T04:57:36;16.20;83.40
40085;DHT22;25786;51.504;7.344;2022-08-21T05:00:02;16.30;83.30
40085;DHT22;25786;51.504;7.344;2022-08-21T05:02:28;16.20;83.20
40085;DHT22;25786;51.504;7.344;2022-08-21T05:04:54;16.20;83.40
40085;DHT22;25786;51.504;7.344;2022-08-21T05:07:22;16.30;83.20
40085;DHT22;25786;51.504;7.344;2022-08-21T05:09:49;16.40;83.60
40085;DHT22;25786;51.504;7.344;2022-08-21T05:12:14;16.40;83.60
40085;DHT22;25786;51.504;7.344;2022-08-21T05:14:40;16.50;83.20
40085;DHT22;25786;51.504;7.344;2022-08-21T05:17:07;16.60;82.90
40085;DHT22;25786;51.504;7.344;2022-08-21T05:19:33;16.70;82.80
40085;DHT22;25786;51.504;7.344;2022-08-21T05:21:58;16.70;82.90
40085;DHT22;25786;51.504;7.344;2022-08-21T05:24:24;16.80;82.30
40085;DHT22;25786;51.504;7.344;2022-08-21T05:26:49;16.80;82.30
40085;DHT22;25786;51.504;7.344;2022-08-21T05:29:15;16.90;82.00
40085;DHT22;25786;51.504;7.344;2022-08-21T05:31:41;17.00;81.90
40085;DHT22;25786;51.504;7.344;2022-08-21T05:34:07;17.10;81.60
40085;DHT22;25786;51.504;7.344;2022-08-21T05:36:33;17.10;81.30
40085;DHT22;25786;51.504;7.344;2022-08-21T05:38:58;17.20;81.00
40085;DHT22;25786;51.504;7.344;2022-08-21T05:41:24;17.30;81.10
40085;DHT22;25786;51.504;7.344;2022-08-21T05:43:49;17.30;80.70
40085;DHT22;25786;51.504;7.344;2022-08-21T05:46:15;17.30;81.40
40085;DHT22;25786;51.504;7.344;2022-08-21T05:48:40;17.30;82.00
40085;DHT22;25786;51.504;7.344;2022-08-21T05:51:12;17.30;81.50
40085;DHT22;25786;51.504;7.344;2022-08-21T05:53:38;17.40;81.40
40085;DHT22;25786;51.504;7.344;2022-08-21T05:56:04;17.40;81.20
40085;DHT22;25786;51.504;7.344;2022-08-21T05:58:31;17.50;81.10
40085;DHT22;25786;51.504;7.344;2022-08-21T06:00:56;17.50;80.20
40085;DHT22;25786;51.504;7.344;2022-08-21T06:03:24;17.70;79.30
40085;DHT22;25786;51.504;7.344;2022-08-21T06:05:50;17.80;78.80
40085;DHT22;25786;51.504;7.344;2022-08-21T06:08:15;17.80;78.60
40085;DHT22;25786;51.504;7.344;2022-08-21T06:10:42;17.80;78.60
40085;DHT22;25786;51.504;7.344;2022-08-21T06:13:08;17.80;78.60
40085;DHT22;25786;51.504;7.344;2022-08-21T06:15:34;17.90;78.80
40085;DHT22;25786;51.504;7.344;2022-08-21T06:17:59;17.80;79.00
40085;DHT22;25786;51.504;7.344;2022-08-21T06:20:25;17.70;79.00
40085;DHT22;25786;51.504;7.344;2022-08-21T06:22:51;17.70;79.50
40085;DHT22;25786;51.504;7.344;2022-08-21T06:25:16;18.00;78.90
40085;DHT22;25786;51.504;7.344;2022-08-21T06:27:42;17.90;78.50
40085;DHT22;25786;51.504;7.344;2022-08-21T06:30:07;18.00;79.00
40085;DHT22;25786;51.504;7.344;2022-08-21T06:32:34;18.00;78.50
40085;DHT22;25786;51.504;7.344;2022-08-21T06:34:59;18.00;78.30
40085;DHT22;25786;51.504;7.344;2022-08-21T06:37:25;18.00;78.50
40085;DHT22;25786;51.504;7.344;2022-08-21T06:39:51;18.10;78.20
40085;DHT22;25786;51.504;7.344;2022-08-21T06:42:17;18.20;77.80
40085;DHT22;25786;51.504;7.344;2022-08-21T06:44:42;18.30;76.40
40085;DHT22;25786;51.504;7.344;2022-08-21T06:47:08;18.20;77.00
40085;DHT22;25786;51.504;7.344;2022-08-21T06:49:34;18.20;76.80
40085;DHT22;25786;51.504;7.344;2022-08-21T06:51:59;18.30;76.70
40085;DHT22;25786;51.504;7.344;2022-08-21T06:54:25;18.30;76.60
40085;DHT22;25786;51.504;7.344;2022-08-21T06:56:50;18.40;76.50
40085;DHT22;25786;51.504;7.344;2022-08-21T06:59:16;18.50;76.10
40085;DHT22;25786;51.504;7.344;2022-08-21T07:01:41;18.50;75.80
40085;DHT22;25786;51.504;7.344;2022-08-21T07:04:07;18.50;76.00
40085;DHT22;25786;51.504;7.344;2022-08-21T07:06:32;18.60;75.50
40085;DHT22;25786;51.504;7.344;2022-08-21T07:08:58;18.80;75.60
40085;DHT22;25786;51.504;7.344;2022-08-21T07:11:24;19.00;75.30
40085;DHT22;25786;51.504;7.344;2022-08-21T07:13:50;19.00;75.80
40085;DHT22;25786;51.504;7.344;2022-08-21T07:16:18;19.10;74.70
40085;DHT22;25786;51.504;7.344;2022-08-21T07:18:43;19.10;74.40
40085;DHT22;25786;51.504;7.344;2022-08-21T07:21:09;19.10;74.10
40085;DHT22;25786;51.504;7.344;2022-08-21T07:23:41;19.10;74.40
40085;DHT22;25786;51.504;7.344;2022-08-21T07:26:07;19.30;73.60
40085;DHT22;25786;51.504;7.344;2022-08-21T07:28:33;19.30;74.00
40085;DHT22;25786;51.504;7.344;2022-08-21T07:30:59;19.40;73.80
40085;DHT22;25786;51.504;7.344;2022-08-21T07:33:26;19.50;73.40
40085;DHT22;25786;51.504;7.344;2022-08-21T07:35:52;19.60;73.50
40085;DHT22;25786;51.504;7.344;2022-08-21T07:38:17;19.60;73.10
40085;DHT22;25786;51.504;7.344;2022-08-21T07:40:44;19.60;72.30
40085;DHT22;25786;51.504;7.344;2022-08-21T07:43:10;19.60;72.10
40085;DHT22;25786;51.504;7.344;2022-08-21T07:45:36;19.70;71.50
40085;DHT22;25786;51.504;7.344;2022-08-21T07:48:02;19.90;71.10
40085;DHT22;25786;51.504;7.344;2022-08-21T07:50:28;20.00;71.00
40085;DHT22;25786;51.504;7.344;2022-08-21T07:52:53;20.00;71.60
40085;DHT22;25786;51.504;7.344;2022-08-21T07:55:19;20.20;70.70
40085;DHT22;25786;51.504;7.344;2022-08-21T07:57:45;20.20;70.10
40085;DHT22;25786;51.504;7.344;2022-08-21T08:00:12;20.20;69.50
40085;DHT22;25786;51.504;7.344;2022-08-21T08:02:38;20.20;68.90
40085;DHT22;25786;51.504;7.344;2022-08-21T08:05:05;20.30;68.90
40085;DHT22;25786;51.504;7.344;2022-08-21T08:07:34;20.40;68.10
40085;DHT22;25786;51.504;7.344;2022-08-21T08:10:07;20.40;67.50
40085;DHT22;25786;51.504;7.344;2022-08-21T08:15:38;20.50;67.00
40085;DHT22;25786;51.504;7.344;2022-08-21T08:18:10;20.50;65.90
40085;DHT22;25786;51.504;7.344;2022-08-21T08:20:35;20.60;64.40
40085;DHT22;25786;51.504;7.344;2022-08-21T08:23:01;20.80;63.70
40085;DHT22;25786;51.504;7.344;2022-08-21T08:25:27;20.80;64.40
40085;DHT22;25786;51.504;7.344;2022-08-21T08:27:53;20.80;64.00
40085;DHT22;25786;51.504;7.344;2022-08-21T08:30:19;20.90;63.30
40085;DHT22;25786;51.504;7.344;2022-08-21T08:32:44;20.90;62.70
40085;DHT22;25786;51.504;7.344;2022-08-21T08:35:10;20.90;62.90
40085;DHT22;25786;51.504;7.344;2022-08-21T08:37:37;20.90;64.50
40085;DHT22;25786;51.504;7.344;2022-08-21T08:40:03;21.00;63.20
40085;DHT22;25786;51.504;7.344;2022-08-21T08:42:30;21.10;62.10
40085;DHT22;25786;51.504;7.344;2022-08-21T08:45:02;21.00;61.20
40085;DHT22;25786;51.504;7.344;2022-08-21T08:47:28;21.10;62.10
40085;DHT22;25786;51.504;7.344;2022-08-21T08:49:58;21.30;61.10
40085;DHT22;25786;51.504;7.344;2022-08-21T08:52:29;21.20;61.00
40085;DHT22;25786;51.504;7.344;2022-08-21T08:57:22;21.30;59.90
40085;DHT22;25786;51.504;7.344;2022-08-21T08:59:52;21.30;60.00
40085;DHT22;25786;51.504;7.344;2022-08-21T09:02:20;21.30;60.00
40085;DHT22;25786;51.504;7.344;2022-08-21T09:04:46;21.30;59.80
40085;DHT22;25786;51.504;7.344;2022-08-21T09:07:28;21.40;60.20
40085;DHT22;25786;51.504;7.344;2022-08-21T09:12:39;21.50;60.10
40085;DHT22;25786;51.504;7.344;2022-08-21T09:20:24;21.80;59.40
40085;DHT22;25786;51.504;7.344;2022-08-21T09:23:03;22.00;59.80
40085;DHT22;25786;51.504;7.344;2022-08-21T09:25:32;22.00;60.70
40085;DHT22;25786;51.504;7.344;2022-08-21T09:27:58;22.00;59.40
40085;DHT22;25786;51.504;7.344;2022-08-21T09:30:26;22.10;59.50
40085;DHT22;25786;51.504;7.344;2022-08-21T09:32:52;22.10;58.00
40085;DHT22;25786;51.504;7.344;2022-08-21T09:35:18;22.30;58.50
40085;DHT22;25786;51.504;7.344;2022-08-21T09:40:23;22.20;56.70
40085;DHT22;25786;51.504;7.344;2022-08-21T09:42:55;22.30;57.40
40085;DHT22;25786;51.504;7.344;2022-08-21T09:45:21;22.30;57.20
40085;DHT22;25786;51.504;7.344;2022-08-21T09:47:47;22.40;56.70
40085;DHT22;25786;51.504;7.344;2022-08-21T09:50:15;22.40;56.90
40085;DHT22;25786;51.504;7.344;2022-08-21T09:52:51;22.30;57.40
40085;DHT22;25786;51.504;7.344;2022-08-21T09:55:18;22.30;57.10
40085;DHT22;25786;51.504;7.344;2022-08-21T09:58:04;22.20;57.40
40085;DHT22;25786;51.504;7.344;2022-08-21T10:00:32;22.30;57.70
40085;DHT22;25786;51.504;7.344;2022-08-21T10:06:00;22.20;56.90
40085;DHT22;25786;51.504;7.344;2022-08-21T10:08:26;22.30;57.40
40085;DHT22;25786;51.504;7.344;2022-08-21T10:10:56;22.40;56.50
40085;DHT22;25786;51.504;7.344;2022-08-21T10:13:39;22.40;56.40
40085;DHT22;25786;51.504;7.344;2022-08-21T10:16:23;22.60;56.30
40085;DHT22;25786;51.504;7.344;2022-08-21T10:21:37;22.60;57.10
40085;DHT22;25786;51.504;7.344;2022-08-21T10:24:13;22.60;55.70
40085;DHT22;25786;51.504;7.344;2022-08-21T10:26:55;22.60;56.20
40085;DHT22;25786;51.504;7.344;2022-08-21T10:32:14;22.90;55.00
40085;DHT22;25786;51.504;7.344;2022-08-21T10:34:50;22.90;55.00
40085;DHT22;25786;51.504;7.344;2022-08-21T10:40:06;22.80;54.60
40085;DHT22;25786;51.504;7.344;2022-08-21T10:42:48;22.90;55.40
40085;DHT22;25786;51.504;7.344;2022-08-21T10:53:39;23.00;54.30
40085;DHT22;25786;51.504;7.344;2022-08-21T10:55:31;23.00;54.90
40085;DHT22;25786;51.504;7.344;2022-08-21T10:57:58;23.00;54.40
40085;DHT22;25786;51.504;7.344;2022-08-21T11:05:49;23.10;53.90
40085;DHT22;25786;51.504;7.344;2022-08-21T11:10:59;23.30;53.70
40085;DHT22;25786;51.504;7.344;2022-08-21T11:13:32;23.40;50.60
40085;DHT22;25786;51.504;7.344;2022-08-21T11:16:12;23.30;50.80
40085;DHT22;25786;51.504;7.344;2022-08-21T11:18:41;23.30;52.50
40085;DHT22;25786;51.504;7.344;2022-08-21T11:21:26;23.50;51.10
40085;DHT22;25786;51.504;7.344;2022-08-21T11:23:54;23.60;50.60
40085;DHT22;25786;51.504;7.344;2022-08-21T11:26:24;23.70;50.00
40085;DHT22;25786;51.504;7.344;2022-08-21T11:28:58;23.70;49.70
40085;DHT22;25786;51.504;7.344;2022-08-21T11:34:25;23.60;50.40
40085;DHT22;25786;51.504;7.344;2022-08-21T11:44:26;23.80;47.40
40085;DHT22;25786;51.504;7.344;2022-08-21T11:46:59;23.80;48.50
40085;DHT22;25786;51.504;7.344;2022-08-21T11:49:35;24.00;48.50
40085;DHT22;25786;51.504;7.344;2022-08-21T11:52:08;24.10;47.10
40085;DHT22;25786;51.504;7.344;2022-08-21T11:59:54;24.20;47.90
40085;DHT22;25786;51.504;7.344;2022-08-21T12:02:23;24.20;47.40
40085;DHT22;25786;51.504;7.344;2022-08-21T12:04:56;24.10;47.00
40085;DHT22;25786;51.504;7.344;2022-08-21T12:07:32;24.30;48.70
40085;DHT22;25786;51.504;7.344;2022-08-21T12:09:58;24.30;48.10
40085;DHT22;25786;51.504;7.344;2022-08-21T12:15:05;24.30;48.70
40085;DHT22;25786;51.504;7.344;2022-08-21T12:17:35;24.30;48.70
40085;DHT22;25786;51.504;7.344;2022-08-21T12:20:04;24.40;49.00
40085;DHT22;25786;51.504;7.344;2022-08-21T12:22:40;24.30;49.50
40085;DHT22;25786;51.504;7.344;2022-08-21T12:25:06;24.40;49.50
40085;DHT22;25786;51.504;7.344;2022-08-21T12:30:19;24.50;48.90
40085;DHT22;25786;51.504;7.344;2022-08-21T12:32:45;24.50;49.10
40085;DHT22;25786;51.504;7.344;2022-08-21T12:35:21;24.50;47.40
40085;DHT22;25786;51.504;7.344;2022-08-21T12:37:56;24.50;47.80
40085;DHT22;25786;51.504;7.344;2022-08-21T12:40:41;24.40;47.60
40085;DHT22;25786;51.504;7.344;2022-08-21T12:43:11;24.20;48.20
40085;DHT22;25786;51.504;7.344;2022-08-21T12:45:42;24.10;49.50
40085;DHT22;25786;51.504;7.344;2022-08-21T12:48:16;24.30;46.40
40085;DHT22;25786;51.504;7.344;2022-08-21T12:55:46;24.10;46.60
40085;DHT22;25786;51.504;7.344;2022-08-21T12:58:19;24.00;48.40
40085;DHT22;25786;51.504;7.344;2022-08-21T13:00:49;24.00;47.50
40085;DHT22;25786;51.504;7.344;2022-08-21T13:03:15;24.00;47.50
40085;DHT22;25786;51.504;7.344;2022-08-21T13:05:41;24.10;46.80
40085;DHT22;25786;51.504;7.344;2022-08-21T13:08:07;24.10;47.60
40085;DHT22;25786;51.504;7.344;2022-08-21T13:10:35;24.10;47.90
40085;DHT22;25786;51.504;7.344;2022-08-21T13:13:02;24.20;48.80
40085;DHT22;25786;51.504;7.344;2022-08-21T13:15:29;24.20;48.40
40085;DHT22;25786;51.504;7.344;2022-08-21T13:17:56;24.10;48.30
40085;DHT22;25786;51.504;7.344;2022-08-21T13:20:35;24.30;48.50
40085;DHT22;25786;51.504;7.344;2022-08-21T13:23:01;24.50;47.40
40085;DHT22;25786;51.504;7.344;2022-08-21T13:25:29;24.40;47.30
40085;DHT22;25786;51.504;7.344;2022-08-21T13:27:59;24.50;46.90
40085;DHT22;25786;51.504;7.344;2022-08-21T13:30:25;24.40;47.10
40085;DHT22;25786;51.504;7.344;2022-08-21T13:32:52;24.30;47.20
40085;DHT22;25786;51.504;7.344;2022-08-21T13:35:21;24.30;46.20
40085;DHT22;25786;51.504;7.344;2022-08-21T13:37:47;24.30;47.20
40085;DHT22;25786;51.504;7.344;2022-08-21T13:40:17;24.10;47.60
40085;DHT22;25786;51.504;7.344;2022-08-21T13:42:45;24.30;47.20
40085;DHT22;25786;51.504;7.344;2022-08-21T13:45:32;24.30;47.10
40085;DHT22;25786;51.504;7.344;2022-08-21T13:47:57;24.40;47.10
40085;DHT22;25786;51.504;7.344;2022-08-21T13:50:24;24.50;47.60
40085;DHT22;25786;51.504;7.344;2022-08-21T13:52:59;24.50;47.90
40085;DHT22;25786;51.504;7.344;2022-08-21T13:55:25;24.50;47.50
40085;DHT22;25786;51.504;7.344;2022-08-21T13:58:00;24.60;44.90
40085;DHT22;25786;51.504;7.344;2022-08-21T14:00:26;24.50;45.80
40085;DHT22;25786;51.504;7.344;2022-08-21T14:02:53;24.50;46.00
40085;DHT22;25786;51.504;7.344;2022-08-21T14:05:21;24.50;45.20
40085;DHT22;25786;51.504;7.344;2022-08-21T14:07:48;24.30;46.90
40085;DHT22;25786;51.504;7.344;2022-08-21T14:10:16;24.30;44.60
40085;DHT22;25786;51.504;7.344;2022-08-21T14:12:53;24.20;45.40
40085;DHT22;25786;51.504;7.344;2022-08-21T14:15:22;24.10;45.80
40085;DHT22;25786;51.504;7.344;2022-08-21T14:17:48;24.30;45.10
40085;DHT22;25786;51.504;7.344;2022-08-21T14:20:33;24.50;45.80
40085;DHT22;25786;51.504;7.344;2022-08-21T14:22:59;24.50;45.50
40085;DHT22;25786;51.504;7.344;2022-08-21T14:27:54;24.60;45.20
40085;DHT22;25786;51.504;7.344;2022-08-21T14:30:39;24.70;44.90
40085;DHT22;25786;51.504;7.344;2022-08-21T14:33:08;24.80;44.80
40085;DHT22;25786;51.504;7.344;2022-08-21T14:35:34;24.50;46.20
40085;DHT22;25786;51.504;7.344;2022-08-21T14:37:59;24.50;46.90
40085;DHT22;25786;51.504;7.344;2022-08-21T14:40:25;24.40;48.20
40085;DHT22;25786;51.504;7.344;2022-08-21T14:42:50;24.40;48.60
40085;DHT22;25786;51.504;7.344;2022-08-21T14:45:17;24.50;47.60
40085;DHT22;25786;51.504;7.344;2022-08-21T14:47:44;24.30;48.20
40085;DHT22;25786;51.504;7.344;2022-08-21T14:50:10;24.30;48.30
40085;DHT22;25786;51.504;7.344;2022-08-21T14:52:36;24.50;47.60
40085;DHT22;25786;51.504;7.344;2022-08-21T14:55:02;24.60;47.60
40085;DHT22;25786;51.504;7.344;2022-08-21T14:57:29;24.50;46.70
40085;DHT22;25786;51.504;7.344;2022-08-21T14:59:54;24.70;46.40
40085;DHT22;25786;51.504;7.344;2022-08-21T15:02:20;24.60;46.30
40085;DHT22;25786;51.504;7.344;2022-08-21T15:04:45;24.50;47.90
40085;DHT22;25786;51.504;7.344;2022-08-21T15:07:11;24.50;46.70
40085;DHT22;25786;51.504;7.344;2022-08-21T15:09:36;24.60;46.80
40085;DHT22;25786;51.504;7.344;2022-08-21T15:12:02;24.60;46.90
40085;DHT22;25786;51.504;7.344;2022-08-21T15:14:29;24.60;47.90
40085;DHT22;25786;51.504;7.344;2022-08-21T15:16:56;24.80;46.00
40085;DHT22;25786;51.504;7.344;2022-08-21T15:19:21;24.80;45.70
40085;DHT22;25786;51.504;7.344;2022-08-21T15:21:47;24.90;46.20
40085;DHT22;25786;51.504;7.344;2022-08-21T15:24:12;25.10;45.20
40085;DHT22;25786;51.504;7.344;2022-08-21T15:26:38;25.00;45.00
40085;DHT22;25786;51.504;7.344;2022-08-21T15:29:04;25.00;45.30
40085;DHT22;25786;51.504;7.344;2022-08-21T15:31:31;25.00;45.90
40085;DHT22;25786;51.504;7.344;2022-08-21T15:33:57;25.00;45.80
40085;DHT22;25786;51.504;7.344;2022-08-21T15:36:22;25.20;44.90
40085;DHT22;25786;51.504;7.344;2022-08-21T15:38:48;25.30;44.50
40085;DHT22;25786;51.504;7.344;2022-08-21T15:41:14;25.40;44.60
40085;DHT22;25786;51.504;7.344;2022-08-21T15:43:50;25.40;43.80
40085;DHT22;25786;51.504;7.344;2022-08-21T15:46:16;25.50;44.20
40085;DHT22;25786;51.504;7.344;2022-08-21T15:48:42;25.40;44.00
40085;DHT22;25786;51.504;7.344;2022-08-21T15:51:12;25.30;44.30
40085;DHT22;25786;51.504;7.344;2022-08-21T15:53:37;25.30;43.80
40085;DHT22;25786;51.504;7.344;2022-08-21T15:56:14;25.40;44.30
40085;DHT22;25786;51.504;7.344;2022-08-21T15:58:40;25.50;45.20
40085;DHT22;25786;51.504;7.344;2022-08-21T16:01:05;25.60;44.40
40085;DHT22;25786;51.504;7.344;2022-08-21T16:03:31;25.50;45.90
40085;DHT22;25786;51.504;7.344;2022-08-21T16:05:57;25.30;47.00
40085;DHT22;25786;51.504;7.344;2022-08-21T16:08:22;25.30;46.10
40085;DHT22;25786;51.504;7.344;2022-08-21T16:10:48;25.10;47.10
40085;DHT22;25786;51.504;7.344;2022-08-21T16:13:16;25.10;47.40
40085;DHT22;25786;51.504;7.344;2022-08-21T16:15:43;25.00;47.30
40085;DHT22;25786;51.504;7.344;2022-08-21T16:18:09;25.00;47.10
40085;DHT22;25786;51.504;7.344;2022-08-21T16:20:35;25.10;46.40
40085;DHT22;25786;51.504;7.344;2022-08-21T16:23:00;25.00;45.80
40085;DHT22;25786;51.504;7.344;2022-08-21T16:25:27;25.10;45.20
40085;DHT22;25786;51.504;7.344;2022-08-21T16:27:54;24.80;47.80
40085;DHT22;25786;51.504;7.344;2022-08-21T16:30:21;24.70;48.70
40085;DHT22;25786;51.504;7.344;2022-08-21T16:32:46;24.60;48.10
40085;DHT22;25786;51.504;7.344;2022-08-21T16:35:14;24.50;48.60
40085;DHT22;25786;51.504;7.344;2022-08-21T16:37:40;24.50;47.30
40085;DHT22;25786;51.504;7.344;2022-08-21T16:40:06;24.50;48.30
40085;DHT22;25786;51.504;7.344;2022-08-21T16:42:33;24.50;49.30
40085;DHT22;25786;51.504;7.344;2022-08-21T16:44:59;24.50;48.50
40085;DHT22;25786;51.504;7.344;2022-08-21T16:47:24;24.50;48.60
40085;DHT22;25786;51.504;7.344;2022-08-21T16:49:50;24.40;49.00
40085;DHT22;25786;51.504;7.344;2022-08-21T16:52:16;24.30;49.30
40085;DHT22;25786;51.504;7.344;2022-08-21T16:54:41;24.50;47.90
40085;DHT22;25786;51.504;7.344;2022-08-21T16:57:07;24.50;48.50
40085;DHT22;25786;51.504;7.344;2022-08-21T16:59:33;24.50;47.60
40085;DHT22;25786;51.504;7.344;2022-08-21T17:01:59;24.70;47.60
40085;DHT22;25786;51.504;7.344;2022-08-21T17:04:24;24.70;48.30
40085;DHT22;25786;51.504;7.344;2022-08-21T17:06:52;24.70;48.50
40085;DHT22;25786;51.504;7.344;2022-08-21T17:09:17;24.60;48.70
40085;DHT22;25786;51.504;7.344;2022-08-21T17:11:44;24.60;48.50
40085;DHT22;25786;51.504;7.344;2022-08-21T17:14:12;24.70;48.50
40085;DHT22;25786;51.504;7.344;2022-08-21T17:16:39;24.70;48.40
40085;DHT22;25786;51.504;7.344;2022-08-21T17:19:07;24.50;49.90
40085;DHT22;25786;51.504;7.344;2022-08-21T17:21:32;24.30;50.30
40085;DHT22;25786;51.504;7.344;2022-08-21T17:23:58;24.10;52.30
40085;DHT22;25786;51.504;7.344;2022-08-21T17:26:23;24.00;52.10
40085;DHT22;25786;51.504;7.344;2022-08-21T17:28:49;24.00;49.80
40085;DHT22;25786;51.504;7.344;2022-08-21T17:31:15;24.00;49.50
40085;DHT22;25786;51.504;7.344;2022-08-21T17:33:41;23.90;51.00
40085;DHT22;25786;51.504;7.344;2022-08-21T17:36:09;23.80;50.90
40085;DHT22;25786;51.504;7.344;2022-08-21T17:38:35;24.00;49.50
40085;DHT22;25786;51.504;7.344;2022-08-21T17:41:02;23.70;50.90
40085;DHT22;25786;51.504;7.344;2022-08-21T17:43:27;23.80;50.00
40085;DHT22;25786;51.504;7.344;2022-08-21T17:45:53;23.70;49.60
40085;DHT22;25786;51.504;7.344;2022-08-21T17:48:18;23.50;49.60
40085;DHT22;25786;51.504;7.344;2022-08-21T17:50:44;23.50;50.50
40085;DHT22;25786;51.504;7.344;2022-08-21T17:53:09;23.60;49.40
40085;DHT22;25786;51.504;7.344;2022-08-21T17:55:35;23.40;50.10
40085;DHT22;25786;51.504;7.344;2022-08-21T17:58:01;23.20;51.60
40085;DHT22;25786;51.504;7.344;2022-08-21T18:00:28;23.10;51.20
40085;DHT22;25786;51.504;7.344;2022-08-21T18:02:58;23.00;53.10
40085;DHT22;25786;51.504;7.344;2022-08-21T18:05:24;22.90;52.40
40085;DHT22;25786;51.504;7.344;2022-08-21T18:07:49;22.90;53.80
40085;DHT22;25786;51.504;7.344;2022-08-21T18:10:15;22.80;54.70
40085;DHT22;25786;51.504;7.344;2022-08-21T18:12:41;22.60;56.70
40085;DHT22;25786;51.504;7.344;2022-08-21T18:15:07;22.60;56.60
40085;DHT22;25786;51.504;7.344;2022-08-21T18:17:33;22.50;59.40
40085;DHT22;25786;51.504;7.344;2022-08-21T18:20:00;22.40;58.20
40085;DHT22;25786;51.504;7.344;2022-08-21T18:22:26;22.30;58.00
40085;DHT22;25786;51.504;7.344;2022-08-21T18:24:51;22.10;60.00
40085;DHT22;25786;51.504;7.344;2022-08-21T18:27:17;22.10;60.80
40085;DHT22;25786;51.504;7.344;2022-08-21T18:29:43;22.00;61.60
40085;DHT22;25786;51.504;7.344;2022-08-21T18:32:08;22.00;61.80
40085;DHT22;25786;51.504;7.344;2022-08-21T18:34:38;21.90;59.60
40085;DHT22;25786;51.504;7.344;2022-08-21T18:37:06;21.80;60.20
40085;DHT22;25786;51.504;7.344;2022-08-21T18:39:31;21.80;62.00
40085;DHT22;25786;51.504;7.344;2022-08-21T18:41:57;21.70;62.00
40085;DHT22;25786;51.504;7.344;2022-08-21T18:44:23;21.60;62.90
40085;DHT22;25786;51.504;7.344;2022-08-21T18:46:58;21.60;63.60
40085;DHT22;25786;51.504;7.344;2022-08-21T18:49:24;21.50;65.00
40085;DHT22;25786;51.504;7.344;2022-08-21T18:51:50;21.50;65.40
40085;DHT22;25786;51.504;7.344;2022-08-21T18:54:16;21.40;65.60
40085;DHT22;25786;51.504;7.344;2022-08-21T18:56:41;21.30;66.50
40085;DHT22;25786;51.504;7.344;2022-08-21T18:59:07;21.30;66.80
40085;DHT22;25786;51.504;7.344;2022-08-21T19:01:34;21.20;66.60
40085;DHT22;25786;51.504;7.344;2022-08-21T19:04:00;21.20;67.20
40085;DHT22;25786;51.504;7.344;2022-08-21T19:06:26;21.20;66.40
40085;DHT22;25786;51.504;7.344;2022-08-21T19:08:51;21.10;66.30
40085;DHT22;25786;51.504;7.344;2022-08-21T19:11:17;21.00;66.70
40085;DHT22;25786;51.504;7.344;2022-08-21T19:13:43;21.00;65.30
40085;DHT22;25786;51.504;7.344;2022-08-21T19:16:08;21.00;65.60
40085;DHT22;25786;51.504;7.344;2022-08-21T19:18:36;20.90;65.40
40085;DHT22;25786;51.504;7.344;2022-08-21T19:21:02;20.80;62.30
40085;DHT22;25786;51.504;7.344;2022-08-21T19:23:28;20.80;62.70
40085;DHT22;25786;51.504;7.344;2022-08-21T19:25:54;20.80;62.60
40085;DHT22;25786;51.504;7.344;2022-08-21T19:28:33;20.70;61.40
40085;DHT22;25786;51.504;7.344;2022-08-21T19:31:05;20.70;61.30
40085;DHT22;25786;51.504;7.344;2022-08-21T19:33:35;20.70;62.00
40085;DHT22;25786;51.504;7.344;2022-08-21T19:36:02;20.70;61.50
40085;DHT22;25786;51.504;7.344;2022-08-21T19:38:28;20.70;59.00
40085;DHT22;25786;51.504;7.344;2022-08-21T19:40:53;20.80;56.50
40085;DHT22;25786;51.504;7.344;2022-08-21T19:43:20;20.90;57.00
40085;DHT22;25786;51.504;7.344;2022-08-21T19:45:46;20.90;56.20
40085;DHT22;25786;51.504;7.344;2022-08-21T19:48:12;20.80;58.30
40085;DHT22;25786;51.504;7.344;2022-08-21T19:50:38;20.80;58.80
40085;DHT22;25786;51.504;7.344;2022-08-21T19:53:04;20.80;56.40
40085;DHT22;25786;51.504;7.344;2022-08-21T19:55:30;20.80;57.50